Anguilla, Mississippi
Current Conditions -  °F | °C
As of 9:53 AM on Wednesday 28 Jan 2015 (Local Time) from KGLH Reporting Station
Clear Clear  
Wind Chill:   Ceiling: Unl
Heat Index:   Visibility: 10mi
Dew Point:   Wind: 8mph
Humidity: 63%   Direction: 130°SE
Pressure: 30.29"   Gusts: NA
Location:  32.97°N, 90.82°W
Report Text: KGLH 281553Z AUTO 13007KT 10SM CLR 09/02 A3029 RMK AO2 SLP264 T00890022
Loading
Personal Weather Stations






























Interactive Weather Map New forecast layout! Learn more

10-Day Weather Forecast

Advertisements
Track Severe Weather on mobile